sensor_id;sensor_type;location;lat;lon;timestamp;P1;durP1;ratioP1;P2;durP2;ratioP2
13718;SDS011;6931;51.100;17.068;2024-03-17T00:02:06;6.32;;;3.28;;
13718;SDS011;6931;51.100;17.068;2024-03-17T00:04:32;5.50;;;3.00;;
13718;SDS011;6931;51.100;17.068;2024-03-17T00:06:58;8.15;;;3.08;;
13718;SDS011;6931;51.100;17.068;2024-03-17T00:09:23;6.78;;;2.65;;
13718;SDS011;6931;51.100;17.068;2024-03-17T00:11:50;4.63;;;2.88;;
13718;SDS011;6931;51.100;17.068;2024-03-17T00:14:16;5.63;;;2.90;;
13718;SDS011;6931;51.100;17.068;2024-03-17T00:16:43;5.78;;;3.00;;
13718;SDS011;6931;51.100;17.068;2024-03-17T00:19:09;6.00;;;2.83;;
13718;SDS011;6931;51.100;17.068;2024-03-17T00:21:35;6.45;;;3.08;;
13718;SDS011;6931;51.100;17.068;2024-03-17T00:24:01;6.95;;;3.13;;
13718;SDS011;6931;51.100;17.068;2024-03-17T00:26:27;10.32;;;3.35;;
13718;SDS011;6931;51.100;17.068;2024-03-17T00:28:54;5.57;;;3.22;;
13718;SDS011;6931;51.100;17.068;2024-03-17T00:31:20;8.07;;;4.47;;
13718;SDS011;6931;51.100;17.068;2024-03-17T00:33:46;7.97;;;4.45;;
13718;SDS011;6931;51.100;17.068;2024-03-17T00:36:11;7.63;;;3.95;;
13718;SDS011;6931;51.100;17.068;2024-03-17T00:38:37;8.00;;;4.93;;
13718;SDS011;6931;51.100;17.068;2024-03-17T00:41:03;7.82;;;5.13;;
13718;SDS011;6931;51.100;17.068;2024-03-17T00:43:29;8.98;;;5.15;;
13718;SDS011;6931;51.100;17.068;2024-03-17T00:45:55;6.43;;;3.50;;
13718;SDS011;6931;51.100;17.068;2024-03-17T00:48:21;8.07;;;3.38;;
13718;SDS011;6931;51.100;17.068;2024-03-17T00:50:46;11.15;;;4.60;;
13718;SDS011;6931;51.100;17.068;2024-03-17T00:53:20;5.85;;;3.40;;
13718;SDS011;6931;51.100;17.068;2024-03-17T00:55:50;6.20;;;3.17;;
13718;SDS011;6931;51.100;17.068;2024-03-17T00:58:22;5.97;;;2.75;;
13718;SDS011;6931;51.100;17.068;2024-03-17T01:00:48;7.05;;;3.00;;
13718;SDS011;6931;51.100;17.068;2024-03-17T01:03:14;8.43;;;3.15;;
13718;SDS011;6931;51.100;17.068;2024-03-17T01:05:42;7.47;;;2.72;;
13718;SDS011;6931;51.100;17.068;2024-03-17T01:08:10;5.68;;;2.97;;
13718;SDS011;6931;51.100;17.068;2024-03-17T01:10:40;5.28;;;3.13;;
13718;SDS011;6931;51.100;17.068;2024-03-17T01:13:07;6.95;;;3.50;;
13718;SDS011;6931;51.100;17.068;2024-03-17T01:15:34;7.90;;;3.70;;
13718;SDS011;6931;51.100;17.068;2024-03-17T01:18:00;5.60;;;3.85;;
13718;SDS011;6931;51.100;17.068;2024-03-17T01:20:26;9.70;;;4.15;;
13718;SDS011;6931;51.100;17.068;2024-03-17T01:22:51;9.40;;;3.72;;
13718;SDS011;6931;51.100;17.068;2024-03-17T01:25:17;5.40;;;3.35;;
13718;SDS011;6931;51.100;17.068;2024-03-17T01:27:43;7.38;;;3.55;;
13718;SDS011;6931;51.100;17.068;2024-03-17T01:30:12;6.18;;;3.13;;
13718;SDS011;6931;51.100;17.068;2024-03-17T01:32:37;6.53;;;3.00;;
13718;SDS011;6931;51.100;17.068;2024-03-17T01:35:03;4.85;;;3.10;;
13718;SDS011;6931;51.100;17.068;2024-03-17T01:37:31;7.70;;;3.05;;
13718;SDS011;6931;51.100;17.068;2024-03-17T01:40:00;5.65;;;3.15;;
13718;SDS011;6931;51.100;17.068;2024-03-17T01:42:26;11.48;;;3.65;;
13718;SDS011;6931;51.100;17.068;2024-03-17T01:44:51;7.30;;;3.55;;
13718;SDS011;6931;51.100;17.068;2024-03-17T01:47:17;9.48;;;3.80;;
13718;SDS011;6931;51.100;17.068;2024-03-17T01:49:47;10.05;;;3.53;;
13718;SDS011;6931;51.100;17.068;2024-03-17T01:52:14;6.90;;;3.05;;
13718;SDS011;6931;51.100;17.068;2024-03-17T01:54:42;5.07;;;3.25;;
13718;SDS011;6931;51.100;17.068;2024-03-17T01:57:08;5.00;;;2.67;;
13718;SDS011;6931;51.100;17.068;2024-03-17T01:59:35;7.75;;;3.17;;
13718;SDS011;6931;51.100;17.068;2024-03-17T02:02:01;6.00;;;3.08;;
13718;SDS011;6931;51.100;17.068;2024-03-17T02:04:27;6.38;;;3.20;;
13718;SDS011;6931;51.100;17.068;2024-03-17T02:06:53;11.05;;;3.95;;
13718;SDS011;6931;51.100;17.068;2024-03-17T02:09:19;11.25;;;3.20;;
13718;SDS011;6931;51.100;17.068;2024-03-17T02:11:45;7.40;;;3.60;;
13718;SDS011;6931;51.100;17.068;2024-03-17T02:14:11;5.72;;;3.10;;
13718;SDS011;6931;51.100;17.068;2024-03-17T02:16:40;6.10;;;3.00;;
13718;SDS011;6931;51.100;17.068;2024-03-17T02:19:05;10.38;;;3.13;;
13718;SDS011;6931;51.100;17.068;2024-03-17T02:21:31;5.72;;;2.83;;
13718;SDS011;6931;51.100;17.068;2024-03-17T02:23:57;7.18;;;3.13;;
13718;SDS011;6931;51.100;17.068;2024-03-17T02:26:23;6.15;;;3.17;;
13718;SDS011;6931;51.100;17.068;2024-03-17T02:28:51;5.95;;;2.55;;
13718;SDS011;6931;51.100;17.068;2024-03-17T02:31:17;6.78;;;2.80;;
13718;SDS011;6931;51.100;17.068;2024-03-17T02:33:43;6.75;;;2.72;;
13718;SDS011;6931;51.100;17.068;2024-03-17T02:36:10;10.65;;;2.83;;
13718;SDS011;6931;51.100;17.068;2024-03-17T02:38:37;8.63;;;2.75;;
13718;SDS011;6931;51.100;17.068;2024-03-17T02:41:25;4.70;;;2.55;;
13718;SDS011;6931;51.100;17.068;2024-03-17T02:43:52;6.05;;;2.55;;
13718;SDS011;6931;51.100;17.068;2024-03-17T02:46:18;7.03;;;2.78;;
13718;SDS011;6931;51.100;17.068;2024-03-17T02:48:49;7.40;;;2.80;;
13718;SDS011;6931;51.100;17.068;2024-03-17T02:51:17;6.25;;;2.55;;
13718;SDS011;6931;51.100;17.068;2024-03-17T02:53:44;4.90;;;2.63;;
13718;SDS011;6931;51.100;17.068;2024-03-17T02:56:11;5.05;;;2.45;;
13718;SDS011;6931;51.100;17.068;2024-03-17T02:58:38;8.43;;;3.28;;
13718;SDS011;6931;51.100;17.068;2024-03-17T03:01:05;6.50;;;2.97;;
13718;SDS011;6931;51.100;17.068;2024-03-17T03:03:33;6.63;;;2.80;;
13718;SDS011;6931;51.100;17.068;2024-03-17T03:05:59;8.52;;;3.67;;
13718;SDS011;6931;51.100;17.068;2024-03-17T03:08:30;4.85;;;3.05;;
13718;SDS011;6931;51.100;17.068;2024-03-17T03:10:55;5.88;;;2.90;;
13718;SDS011;6931;51.100;17.068;2024-03-17T03:13:21;7.00;;;3.20;;
13718;SDS011;6931;51.100;17.068;2024-03-17T03:15:47;6.72;;;3.28;;
13718;SDS011;6931;51.100;17.068;2024-03-17T03:18:14;8.50;;;3.40;;
13718;SDS011;6931;51.100;17.068;2024-03-17T03:20:39;9.52;;;3.50;;
13718;SDS011;6931;51.100;17.068;2024-03-17T03:23:05;8.05;;;2.97;;
13718;SDS011;6931;51.100;17.068;2024-03-17T03:25:31;5.70;;;2.92;;
13718;SDS011;6931;51.100;17.068;2024-03-17T03:27:57;7.10;;;2.95;;
13718;SDS011;6931;51.100;17.068;2024-03-17T03:30:26;5.75;;;3.35;;
13718;SDS011;6931;51.100;17.068;2024-03-17T03:32:52;7.93;;;3.10;;
13718;SDS011;6931;51.100;17.068;2024-03-17T03:35:18;4.57;;;3.00;;
13718;SDS011;6931;51.100;17.068;2024-03-17T03:37:44;6.43;;;2.88;;
13718;SDS011;6931;51.100;17.068;2024-03-17T03:40:10;8.13;;;3.38;;
13718;SDS011;6931;51.100;17.068;2024-03-17T03:42:43;6.93;;;2.92;;
13718;SDS011;6931;51.100;17.068;2024-03-17T03:45:09;8.05;;;3.72;;
13718;SDS011;6931;51.100;17.068;2024-03-17T03:47:41;9.13;;;3.28;;
13718;SDS011;6931;51.100;17.068;2024-03-17T03:50:08;6.32;;;3.50;;
13718;SDS011;6931;51.100;17.068;2024-03-17T03:52:37;12.05;;;3.78;;
13718;SDS011;6931;51.100;17.068;2024-03-17T03:55:03;7.20;;;3.40;;
13718;SDS011;6931;51.100;17.068;2024-03-17T03:57:30;7.80;;;3.60;;
13718;SDS011;6931;51.100;17.068;2024-03-17T03:59:57;7.75;;;3.10;;
13718;SDS011;6931;51.100;17.068;2024-03-17T04:02:24;5.78;;;3.33;;
13718;SDS011;6931;51.100;17.068;2024-03-17T04:04:52;11.77;;;3.75;;
13718;SDS011;6931;51.100;17.068;2024-03-17T04:07:18;13.80;;;4.13;;
13718;SDS011;6931;51.100;17.068;2024-03-17T04:09:43;9.68;;;3.78;;
13718;SDS011;6931;51.100;17.068;2024-03-17T04:12:09;8.05;;;3.70;;
13718;SDS011;6931;51.100;17.068;2024-03-17T04:14:35;8.88;;;3.80;;
13718;SDS011;6931;51.100;17.068;2024-03-17T04:17:00;7.00;;;3.22;;
13718;SDS011;6931;51.100;17.068;2024-03-17T04:19:26;8.10;;;3.92;;
13718;SDS011;6931;51.100;17.068;2024-03-17T04:21:51;9.02;;;3.50;;
13718;SDS011;6931;51.100;17.068;2024-03-17T04:24:17;9.27;;;3.60;;
13718;SDS011;6931;51.100;17.068;2024-03-17T04:26:43;7.30;;;3.45;;
13718;SDS011;6931;51.100;17.068;2024-03-17T04:29:09;7.85;;;4.00;;
13718;SDS011;6931;51.100;17.068;2024-03-17T04:31:34;9.20;;;3.72;;
13718;SDS011;6931;51.100;17.068;2024-03-17T04:34:00;8.93;;;3.40;;
13718;SDS011;6931;51.100;17.068;2024-03-17T04:36:25;8.45;;;3.80;;
13718;SDS011;6931;51.100;17.068;2024-03-17T04:38:51;6.50;;;4.05;;
13718;SDS011;6931;51.100;17.068;2024-03-17T04:41:19;7.65;;;4.03;;
13718;SDS011;6931;51.100;17.068;2024-03-17T04:43:45;7.97;;;4.07;;
13718;SDS011;6931;51.100;17.068;2024-03-17T04:46:11;8.40;;;4.30;;
13718;SDS011;6931;51.100;17.068;2024-03-17T04:48:38;8.25;;;4.25;;
13718;SDS011;6931;51.100;17.068;2024-03-17T04:51:04;7.95;;;4.30;;
13718;SDS011;6931;51.100;17.068;2024-03-17T04:53:30;11.25;;;5.85;;
13718;SDS011;6931;51.100;17.068;2024-03-17T04:56:00;8.70;;;5.60;;
13718;SDS011;6931;51.100;17.068;2024-03-17T04:58:27;7.95;;;5.40;;
13718;SDS011;6931;51.100;17.068;2024-03-17T05:00:52;12.43;;;6.40;;
13718;SDS011;6931;51.100;17.068;2024-03-17T05:03:18;12.32;;;6.43;;
13718;SDS011;6931;51.100;17.068;2024-03-17T05:05:43;10.98;;;6.22;;
13718;SDS011;6931;51.100;17.068;2024-03-17T05:08:09;14.20;;;5.55;;
13718;SDS011;6931;51.100;17.068;2024-03-17T05:10:34;7.97;;;4.18;;
13718;SDS011;6931;51.100;17.068;2024-03-17T05:13:00;10.80;;;5.13;;
13718;SDS011;6931;51.100;17.068;2024-03-17T05:15:25;8.65;;;4.20;;
13718;SDS011;6931;51.100;17.068;2024-03-17T05:17:51;6.55;;;3.55;;
13718;SDS011;6931;51.100;17.068;2024-03-17T05:20:16;12.35;;;4.45;;
13718;SDS011;6931;51.100;17.068;2024-03-17T05:22:42;12.65;;;3.72;;
13718;SDS011;6931;51.100;17.068;2024-03-17T05:25:09;11.45;;;4.50;;
13718;SDS011;6931;51.100;17.068;2024-03-17T05:27:35;8.93;;;4.85;;
13718;SDS011;6931;51.100;17.068;2024-03-17T05:30:00;12.60;;;5.60;;
13718;SDS011;6931;51.100;17.068;2024-03-17T05:32:26;16.73;;;8.65;;
13718;SDS011;6931;51.100;17.068;2024-03-17T05:34:52;7.60;;;4.25;;
13718;SDS011;6931;51.100;17.068;2024-03-17T05:37:17;11.52;;;4.55;;
13718;SDS011;6931;51.100;17.068;2024-03-17T05:39:43;8.13;;;4.72;;
13718;SDS011;6931;51.100;17.068;2024-03-17T05:42:08;7.65;;;3.20;;
13718;SDS011;6931;51.100;17.068;2024-03-17T05:44:34;10.25;;;3.78;;
13718;SDS011;6931;51.100;17.068;2024-03-17T05:47:16;8.90;;;3.40;;
13718;SDS011;6931;51.100;17.068;2024-03-17T05:49:43;8.20;;;3.10;;
13718;SDS011;6931;51.100;17.068;2024-03-17T05:52:08;9.50;;;2.72;;
13718;SDS011;6931;51.100;17.068;2024-03-17T05:54:35;6.63;;;2.33;;
13718;SDS011;6931;51.100;17.068;2024-03-17T05:57:00;7.22;;;2.80;;
13718;SDS011;6931;51.100;17.068;2024-03-17T05:59:29;8.55;;;2.85;;
13718;SDS011;6931;51.100;17.068;2024-03-17T06:01:56;11.02;;;2.75;;
13718;SDS011;6931;51.100;17.068;2024-03-17T06:04:22;7.95;;;2.42;;
13718;SDS011;6931;51.100;17.068;2024-03-17T06:06:49;7.70;;;2.78;;
13718;SDS011;6931;51.100;17.068;2024-03-17T06:09:15;7.68;;;2.67;;
13718;SDS011;6931;51.100;17.068;2024-03-17T06:11:45;8.02;;;2.67;;
13718;SDS011;6931;51.100;17.068;2024-03-17T06:14:12;8.55;;;2.47;;
13718;SDS011;6931;51.100;17.068;2024-03-17T06:16:38;10.45;;;2.72;;
13718;SDS011;6931;51.100;17.068;2024-03-17T06:19:04;11.30;;;3.10;;
13718;SDS011;6931;51.100;17.068;2024-03-17T06:21:30;6.68;;;2.92;;
13718;SDS011;6931;51.100;17.068;2024-03-17T06:23:56;6.43;;;2.47;;
13718;SDS011;6931;51.100;17.068;2024-03-17T06:26:22;11.98;;;2.78;;
13718;SDS011;6931;51.100;17.068;2024-03-17T06:28:48;10.15;;;2.30;;
13718;SDS011;6931;51.100;17.068;2024-03-17T06:31:14;7.60;;;2.88;;
13718;SDS011;6931;51.100;17.068;2024-03-17T06:33:40;9.02;;;3.00;;
13718;SDS011;6931;51.100;17.068;2024-03-17T06:36:06;10.27;;;2.15;;
13718;SDS011;6931;51.100;17.068;2024-03-17T06:38:32;8.23;;;2.17;;
13718;SDS011;6931;51.100;17.068;2024-03-17T06:40:58;10.75;;;2.92;;
13718;SDS011;6931;51.100;17.068;2024-03-17T06:43:24;8.60;;;2.40;;
13718;SDS011;6931;51.100;17.068;2024-03-17T06:45:53;7.90;;;2.55;;
13718;SDS011;6931;51.100;17.068;2024-03-17T06:48:20;9.85;;;2.28;;
13718;SDS011;6931;51.100;17.068;2024-03-17T06:50:46;7.18;;;2.30;;
13718;SDS011;6931;51.100;17.068;2024-03-17T06:53:12;12.00;;;2.92;;
13718;SDS011;6931;51.100;17.068;2024-03-17T06:55:38;8.73;;;2.30;;
13718;SDS011;6931;51.100;17.068;2024-03-17T06:58:03;11.25;;;3.00;;
13718;SDS011;6931;51.100;17.068;2024-03-17T07:00:29;8.35;;;2.40;;
13718;SDS011;6931;51.100;17.068;2024-03-17T07:02:55;11.93;;;2.67;;
13718;SDS011;6931;51.100;17.068;2024-03-17T07:05:20;11.00;;;2.90;;
13718;SDS011;6931;51.100;17.068;2024-03-17T07:07:46;9.52;;;2.35;;
13718;SDS011;6931;51.100;17.068;2024-03-17T07:10:12;14.88;;;2.60;;
13718;SDS011;6931;51.100;17.068;2024-03-17T07:12:38;6.78;;;1.75;;
13718;SDS011;6931;51.100;17.068;2024-03-17T07:15:04;12.00;;;2.55;;
13718;SDS011;6931;51.100;17.068;2024-03-17T07:17:30;11.27;;;2.15;;
13718;SDS011;6931;51.100;17.068;2024-03-17T07:19:56;11.77;;;2.35;;
13718;SDS011;6931;51.100;17.068;2024-03-17T07:22:21;10.05;;;2.40;;
13718;SDS011;6931;51.100;17.068;2024-03-17T07:24:48;11.73;;;2.30;;
13718;SDS011;6931;51.100;17.068;2024-03-17T07:27:15;10.48;;;2.33;;
13718;SDS011;6931;51.100;17.068;2024-03-17T07:29:41;5.88;;;1.70;;
13718;SDS011;6931;51.100;17.068;2024-03-17T07:32:06;15.02;;;2.45;;
13718;SDS011;6931;51.100;17.068;2024-03-17T07:34:32;5.20;;;1.85;;
13718;SDS011;6931;51.100;17.068;2024-03-17T07:36:58;8.35;;;2.33;;
13718;SDS011;6931;51.100;17.068;2024-03-17T07:39:29;9.63;;;1.70;;
13718;SDS011;6931;51.100;17.068;2024-03-17T07:41:58;8.32;;;2.30;;
13718;SDS011;6931;51.100;17.068;2024-03-17T07:44:24;5.90;;;2.00;;
13718;SDS011;6931;51.100;17.068;2024-03-17T07:46:51;9.55;;;2.30;;
13718;SDS011;6931;51.100;17.068;2024-03-17T07:49:16;7.70;;;2.00;;
13718;SDS011;6931;51.100;17.068;2024-03-17T07:51:42;7.55;;;2.20;;
13718;SDS011;6931;51.100;17.068;2024-03-17T07:54:09;6.82;;;2.03;;
13718;SDS011;6931;51.100;17.068;2024-03-17T07:56:34;8.80;;;2.15;;
13718;SDS011;6931;51.100;17.068;2024-03-17T07:59:00;6.78;;;1.95;;
13718;SDS011;6931;51.100;17.068;2024-03-17T08:01:25;11.13;;;2.00;;
13718;SDS011;6931;51.100;17.068;2024-03-17T08:03:52;6.18;;;1.73;;
13718;SDS011;6931;51.100;17.068;2024-03-17T08:06:21;9.95;;;2.42;;
13718;SDS011;6931;51.100;17.068;2024-03-17T08:08:47;9.63;;;2.70;;
13718;SDS011;6931;51.100;17.068;2024-03-17T08:11:12;9.88;;;1.98;;
13718;SDS011;6931;51.100;17.068;2024-03-17T08:13:39;7.03;;;2.28;;
13718;SDS011;6931;51.100;17.068;2024-03-17T08:16:05;13.18;;;2.75;;
13718;SDS011;6931;51.100;17.068;2024-03-17T08:18:35;6.82;;;2.30;;
13718;SDS011;6931;51.100;17.068;2024-03-17T08:21:02;4.88;;;1.83;;
13718;SDS011;6931;51.100;17.068;2024-03-17T08:23:31;4.95;;;1.63;;
13718;SDS011;6931;51.100;17.068;2024-03-17T08:26:01;4.35;;;1.52;;
13718;SDS011;6931;51.100;17.068;2024-03-17T08:28:27;13.55;;;2.28;;
13718;SDS011;6931;51.100;17.068;2024-03-17T08:30:54;5.93;;;1.85;;
13718;SDS011;6931;51.100;17.068;2024-03-17T08:33:20;4.32;;;1.70;;
13718;SDS011;6931;51.100;17.068;2024-03-17T08:38:20;4.63;;;1.73;;
13718;SDS011;6931;51.100;17.068;2024-03-17T08:40:48;10.18;;;2.10;;
13718;SDS011;6931;51.100;17.068;2024-03-17T08:43:17;12.38;;;2.20;;
13718;SDS011;6931;51.100;17.068;2024-03-17T08:45:43;8.65;;;2.70;;
13718;SDS011;6931;51.100;17.068;2024-03-17T08:48:09;6.90;;;2.17;;
13718;SDS011;6931;51.100;17.068;2024-03-17T08:50:38;12.10;;;2.63;;
13718;SDS011;6931;51.100;17.068;2024-03-17T08:53:05;10.07;;;2.38;;
13718;SDS011;6931;51.100;17.068;2024-03-17T08:55:32;8.52;;;2.72;;
13718;SDS011;6931;51.100;17.068;2024-03-17T08:57:57;8.68;;;2.15;;
13718;SDS011;6931;51.100;17.068;2024-03-17T09:00:23;4.55;;;1.70;;
13718;SDS011;6931;51.100;17.068;2024-03-17T09:02:48;8.00;;;1.83;;
13718;SDS011;6931;51.100;17.068;2024-03-17T09:05:14;5.65;;;2.22;;
13718;SDS011;6931;51.100;17.068;2024-03-17T09:07:39;6.63;;;2.17;;
13718;SDS011;6931;51.100;17.068;2024-03-17T09:10:05;6.18;;;1.90;;
13718;SDS011;6931;51.100;17.068;2024-03-17T09:12:31;5.80;;;1.55;;
13718;SDS011;6931;51.100;17.068;2024-03-17T09:14:57;4.80;;;1.42;;
13718;SDS011;6931;51.100;17.068;2024-03-17T09:17:23;3.75;;;0.85;;
13718;SDS011;6931;51.100;17.068;2024-03-17T09:19:48;2.88;;;0.93;;
13718;SDS011;6931;51.100;17.068;2024-03-17T09:22:14;3.30;;;1.25;;
13718;SDS011;6931;51.100;17.068;2024-03-17T09:24:39;5.40;;;1.80;;
13718;SDS011;6931;51.100;17.068;2024-03-17T09:27:06;3.30;;;1.25;;
13718;SDS011;6931;51.100;17.068;2024-03-17T09:29:32;5.60;;;1.75;;
13718;SDS011;6931;51.100;17.068;2024-03-17T09:31:58;7.03;;;1.92;;
13718;SDS011;6931;51.100;17.068;2024-03-17T09:34:24;15.25;;;8.65;;
13718;SDS011;6931;51.100;17.068;2024-03-17T09:36:50;9.38;;;2.35;;
13718;SDS011;6931;51.100;17.068;2024-03-17T09:39:16;6.90;;;1.85;;
13718;SDS011;6931;51.100;17.068;2024-03-17T09:41:41;4.47;;;1.63;;
13718;SDS011;6931;51.100;17.068;2024-03-17T09:44:09;6.25;;;2.40;;
13718;SDS011;6931;51.100;17.068;2024-03-17T09:46:38;5.00;;;1.83;;
13718;SDS011;6931;51.100;17.068;2024-03-17T09:49:04;5.97;;;1.67;;
13718;SDS011;6931;51.100;17.068;2024-03-17T09:51:31;7.38;;;1.83;;
13718;SDS011;6931;51.100;17.068;2024-03-17T09:53:57;4.22;;;1.58;;
13718;SDS011;6931;51.100;17.068;2024-03-17T09:56:23;3.25;;;1.42;;
13718;SDS011;6931;51.100;17.068;2024-03-17T09:58:50;8.15;;;1.85;;
13718;SDS011;6931;51.100;17.068;2024-03-17T10:01:17;5.38;;;2.60;;
13718;SDS011;6931;51.100;17.068;2024-03-17T10:03:46;10.60;;;3.08;;
13718;SDS011;6931;51.100;17.068;2024-03-17T10:06:24;6.57;;;1.92;;
13718;SDS011;6931;51.100;17.068;2024-03-17T10:08:54;4.90;;;1.67;;
13718;SDS011;6931;51.100;17.068;2024-03-17T10:11:25;6.38;;;1.70;;
13718;SDS011;6931;51.100;17.068;2024-03-17T10:14:04;6.25;;;1.60;;
13718;SDS011;6931;51.100;17.068;2024-03-17T10:16:32;8.30;;;1.90;;
13718;SDS011;6931;51.100;17.068;2024-03-17T10:21:36;6.63;;;2.08;;
13718;SDS011;6931;51.100;17.068;2024-03-17T10:24:07;4.60;;;1.92;;
13718;SDS011;6931;51.100;17.068;2024-03-17T10:26:43;5.32;;;1.52;;
13718;SDS011;6931;51.100;17.068;2024-03-17T10:29:24;9.05;;;2.05;;
13718;SDS011;6931;51.100;17.068;2024-03-17T10:31:52;4.63;;;1.67;;
13718;SDS011;6931;51.100;17.068;2024-03-17T10:34:21;4.82;;;1.75;;
13718;SDS011;6931;51.100;17.068;2024-03-17T10:36:51;4.75;;;1.50;;
13718;SDS011;6931;51.100;17.068;2024-03-17T10:39:30;4.15;;;1.38;;
13718;SDS011;6931;51.100;17.068;2024-03-17T10:41:56;4.55;;;1.65;;
13718;SDS011;6931;51.100;17.068;2024-03-17T10:44:26;8.52;;;2.10;;
13718;SDS011;6931;51.100;17.068;2024-03-17T10:46:55;5.88;;;1.60;;
13718;SDS011;6931;51.100;17.068;2024-03-17T10:51:57;16.45;;;5.68;;
13718;SDS011;6931;51.100;17.068;2024-03-17T10:54:25;9.65;;;3.60;;
13718;SDS011;6931;51.100;17.068;2024-03-17T10:56:54;21.15;;;7.35;;
13718;SDS011;6931;51.100;17.068;2024-03-17T10:59:34;7.30;;;3.13;;
13718;SDS011;6931;51.100;17.068;2024-03-17T11:02:07;6.60;;;3.33;;
13718;SDS011;6931;51.100;17.068;2024-03-17T11:04:49;6.05;;;1.95;;
13718;SDS011;6931;51.100;17.068;2024-03-17T11:07:18;8.40;;;1.77;;
13718;SDS011;6931;51.100;17.068;2024-03-17T11:09:45;4.03;;;1.67;;
13718;SDS011;6931;51.100;17.068;2024-03-17T11:17:54;4.70;;;2.15;;
13718;SDS011;6931;51.100;17.068;2024-03-17T11:20:24;5.38;;;1.90;;
13718;SDS011;6931;51.100;17.068;2024-03-17T11:22:55;7.80;;;2.58;;
13718;SDS011;6931;51.100;17.068;2024-03-17T11:27:54;3.83;;;1.63;;
13718;SDS011;6931;51.100;17.068;2024-03-17T11:38:57;8.73;;;1.88;;
13718;SDS011;6931;51.100;17.068;2024-03-17T11:41:39;5.47;;;1.63;;
13718;SDS011;6931;51.100;17.068;2024-03-17T11:46:44;5.95;;;1.33;;
13718;SDS011;6931;51.100;17.068;2024-03-17T11:49:17;3.60;;;1.45;;
13718;SDS011;6931;51.100;17.068;2024-03-17T11:51:45;5.13;;;2.08;;
13718;SDS011;6931;51.100;17.068;2024-03-17T11:54:19;6.30;;;1.67;;
13718;SDS011;6931;51.100;17.068;2024-03-17T11:56:48;7.93;;;2.17;;
13718;SDS011;6931;51.100;17.068;2024-03-17T11:59:14;7.05;;;1.73;;
13718;SDS011;6931;51.100;17.068;2024-03-17T12:01:52;5.30;;;1.85;;
13718;SDS011;6931;51.100;17.068;2024-03-17T12:04:18;5.10;;;1.70;;
13718;SDS011;6931;51.100;17.068;2024-03-17T12:06:53;2.47;;;1.30;;
13718;SDS011;6931;51.100;17.068;2024-03-17T12:11:51;7.03;;;2.00;;
13718;SDS011;6931;51.100;17.068;2024-03-17T12:14:24;7.20;;;2.08;;
13718;SDS011;6931;51.100;17.068;2024-03-17T12:16:51;4.65;;;1.35;;
13718;SDS011;6931;51.100;17.068;2024-03-17T12:19:24;5.45;;;1.88;;
13718;SDS011;6931;51.100;17.068;2024-03-17T12:21:52;7.90;;;2.53;;
13718;SDS011;6931;51.100;17.068;2024-03-17T12:24:23;4.70;;;1.73;;
13718;SDS011;6931;51.100;17.068;2024-03-17T12:26:51;8.43;;;3.65;;
13718;SDS011;6931;51.100;17.068;2024-03-17T12:32:04;9.65;;;2.80;;
13718;SDS011;6931;51.100;17.068;2024-03-17T12:34:33;8.10;;;2.95;;
13718;SDS011;6931;51.100;17.068;2024-03-17T12:37:00;6.60;;;2.05;;
13718;SDS011;6931;51.100;17.068;2024-03-17T12:39:30;4.65;;;2.17;;
13718;SDS011;6931;51.100;17.068;2024-03-17T12:44:48;11.65;;;4.80;;
13718;SDS011;6931;51.100;17.068;2024-03-17T12:47:18;12.77;;;4.28;;
13718;SDS011;6931;51.100;17.068;2024-03-17T12:49:46;25.17;;;10.00;;
13718;SDS011;6931;51.100;17.068;2024-03-17T12:52:19;15.27;;;5.78;;
13718;SDS011;6931;51.100;17.068;2024-03-17T12:54:59;13.75;;;5.95;;
13718;SDS011;6931;51.100;17.068;2024-03-17T12:57:47;18.52;;;6.82;;
13718;SDS011;6931;51.100;17.068;2024-03-17T13:00:34;26.85;;;12.25;;
13718;SDS011;6931;51.100;17.068;2024-03-17T13:03:00;16.23;;;5.72;;
13718;SDS011;6931;51.100;17.068;2024-03-17T13:05:27;2.80;;;1.58;;
13718;SDS011;6931;51.100;17.068;2024-03-17T13:07:53;10.43;;;4.20;;
13718;SDS011;6931;51.100;17.068;2024-03-17T13:10:23;6.32;;;2.20;;
13718;SDS011;6931;51.100;17.068;2024-03-17T13:15:29;5.65;;;1.98;;
13718;SDS011;6931;51.100;17.068;2024-03-17T13:17:56;3.63;;;1.50;;
13718;SDS011;6931;51.100;17.068;2024-03-17T13:20:22;6.70;;;1.55;;
13718;SDS011;6931;51.100;17.068;2024-03-17T13:22:48;8.52;;;1.50;;
13718;SDS011;6931;51.100;17.068;2024-03-17T13:25:23;4.43;;;1.45;;
13718;SDS011;6931;51.100;17.068;2024-03-17T13:27:51;3.03;;;1.10;;
13718;SDS011;6931;51.100;17.068;2024-03-17T13:30:19;3.53;;;1.65;;
13718;SDS011;6931;51.100;17.068;2024-03-17T13:32:49;5.18;;;1.80;;
13718;SDS011;6931;51.100;17.068;2024-03-17T13:35:22;5.07;;;1.60;;
13718;SDS011;6931;51.100;17.068;2024-03-17T13:37:49;5.32;;;1.95;;
13718;SDS011;6931;51.100;17.068;2024-03-17T13:40:17;5.10;;;1.85;;
13718;SDS011;6931;51.100;17.068;2024-03-17T13:42:44;7.72;;;2.05;;
13718;SDS011;6931;51.100;17.068;2024-03-17T13:45:15;6.55;;;1.75;;
13718;SDS011;6931;51.100;17.068;2024-03-17T13:47:42;4.72;;;1.67;;
13718;SDS011;6931;51.100;17.068;2024-03-17T13:50:11;4.40;;;1.65;;
13718;SDS011;6931;51.100;17.068;2024-03-17T13:52:38;6.88;;;2.13;;
13718;SDS011;6931;51.100;17.068;2024-03-17T13:55:15;5.22;;;1.60;;
13718;SDS011;6931;51.100;17.068;2024-03-17T13:57:43;4.75;;;1.50;;
13718;SDS011;6931;51.100;17.068;2024-03-17T14:00:10;4.95;;;1.77;;
13718;SDS011;6931;51.100;17.068;2024-03-17T14:02:44;4.85;;;1.67;;
13718;SDS011;6931;51.100;17.068;2024-03-17T14:05:12;6.20;;;1.88;;
13718;SDS011;6931;51.100;17.068;2024-03-17T14:07:38;3.42;;;1.33;;
13718;SDS011;6931;51.100;17.068;2024-03-17T14:10:04;5.65;;;1.65;;
13718;SDS011;6931;51.100;17.068;2024-03-17T14:12:31;5.68;;;1.90;;
13718;SDS011;6931;51.100;17.068;2024-03-17T14:14:57;3.97;;;1.90;;
13718;SDS011;6931;51.100;17.068;2024-03-17T14:17:22;4.03;;;1.60;;
13718;SDS011;6931;51.100;17.068;2024-03-17T14:19:48;4.18;;;1.35;;
13718;SDS011;6931;51.100;17.068;2024-03-17T14:22:13;7.13;;;1.92;;
13718;SDS011;6931;51.100;17.068;2024-03-17T14:24:39;4.97;;;1.88;;
13718;SDS011;6931;51.100;17.068;2024-03-17T14:27:06;6.80;;;1.80;;
13718;SDS011;6931;51.100;17.068;2024-03-17T14:29:32;7.30;;;1.40;;
13718;SDS011;6931;51.100;17.068;2024-03-17T14:31:58;7.72;;;1.67;;
13718;SDS011;6931;51.100;17.068;2024-03-17T14:34:23;4.00;;;1.80;;
13718;SDS011;6931;51.100;17.068;2024-03-17T14:36:49;4.03;;;1.70;;
13718;SDS011;6931;51.100;17.068;2024-03-17T14:39:14;6.07;;;1.70;;
13718;SDS011;6931;51.100;17.068;2024-03-17T14:41:40;5.05;;;1.85;;
13718;SDS011;6931;51.100;17.068;2024-03-17T14:44:06;5.18;;;2.00;;
13718;SDS011;6931;51.100;17.068;2024-03-17T14:46:32;6.80;;;1.63;;
13718;SDS011;6931;51.100;17.068;2024-03-17T14:48:58;6.43;;;1.52;;
13718;SDS011;6931;51.100;17.068;2024-03-17T14:51:24;4.40;;;1.50;;
13718;SDS011;6931;51.100;17.068;2024-03-17T14:53:49;5.22;;;1.42;;
13718;SDS011;6931;51.100;17.068;2024-03-17T14:56:17;3.75;;;1.27;;
13718;SDS011;6931;51.100;17.068;2024-03-17T14:58:44;3.38;;;1.40;;
13718;SDS011;6931;51.100;17.068;2024-03-17T15:01:11;5.30;;;1.48;;
13718;SDS011;6931;51.100;17.068;2024-03-17T15:03:37;6.03;;;1.42;;
13718;SDS011;6931;51.100;17.068;2024-03-17T15:06:03;5.05;;;1.42;;
13718;SDS011;6931;51.100;17.068;2024-03-17T15:08:33;2.45;;;1.00;;
13718;SDS011;6931;51.100;17.068;2024-03-17T15:10:59;4.47;;;1.67;;
13718;SDS011;6931;51.100;17.068;2024-03-17T15:13:25;3.17;;;1.30;;
13718;SDS011;6931;51.100;17.068;2024-03-17T15:15:50;2.15;;;1.20;;
13718;SDS011;6931;51.100;17.068;2024-03-17T15:18:17;5.00;;;1.60;;
13718;SDS011;6931;51.100;17.068;2024-03-17T15:20:43;4.80;;;1.30;;
13718;SDS011;6931;51.100;17.068;2024-03-17T15:23:08;3.40;;;1.48;;
13718;SDS011;6931;51.100;17.068;2024-03-17T15:25:34;5.20;;;1.90;;